sensor_id;sensor_type;location;lat;lon;timestamp;pressure;altitude;pressure_sealevel;temperature;humidity
22031;BME280;11179;52.106;21.024;2022-08-14T00:00:47;100262.75;;;20.82;65.17
22031;BME280;11179;52.106;21.024;2022-08-14T00:03:25;100263.22;;;20.84;65.83
22031;BME280;11179;52.106;21.024;2022-08-14T00:05:53;100265.53;;;20.82;65.89
22031;BME280;11179;52.106;21.024;2022-08-14T00:08:19;100265.03;;;20.80;66.04
22031;BME280;11179;52.106;21.024;2022-08-14T00:10:44;100257.31;;;20.77;66.47
22031;BME280;11179;52.106;21.024;2022-08-14T00:13:11;100257.47;;;20.72;66.82
22031;BME280;11179;52.106;21.024;2022-08-14T00:15:39;100242.38;;;20.73;66.94
22031;BME280;11179;52.106;21.024;2022-08-14T00:18:07;100239.25;;;20.74;67.03
22031;BME280;11179;52.106;21.024;2022-08-14T00:20:35;100238.44;;;20.74;67.01
22031;BME280;11179;52.106;21.024;2022-08-14T00:23:04;100238.28;;;20.79;67.33
22031;BME280;11179;52.106;21.024;2022-08-14T00:25:30;100241.56;;;20.81;67.18
22031;BME280;11179;52.106;21.024;2022-08-14T00:27:55;100235.50;;;20.79;67.04
22031;BME280;11179;52.106;21.024;2022-08-14T00:30:21;100235.50;;;20.79;67.51
22031;BME280;11179;52.106;21.024;2022-08-14T00:32:46;100224.81;;;20.81;67.70
22031;BME280;11179;52.106;21.024;2022-08-14T00:35:12;100231.53;;;20.80;67.68
22031;BME280;11179;52.106;21.024;2022-08-14T00:37:39;100221.22;;;20.81;67.81
22031;BME280;11179;52.106;21.024;2022-08-14T00:40:06;100225.97;;;20.80;68.05
22031;BME280;11179;52.106;21.024;2022-08-14T00:42:33;100231.53;;;20.80;68.25
22031;BME280;11179;52.106;21.024;2022-08-14T00:44:58;100238.75;;;20.72;68.51
22031;BME280;11179;52.106;21.024;2022-08-14T00:47:23;100241.38;;;20.69;68.74
22031;BME280;11179;52.106;21.024;2022-08-14T00:49:50;100248.75;;;20.65;68.74
22031;BME280;11179;52.106;21.024;2022-08-14T00:52:16;100234.97;;;20.51;69.38
22031;BME280;11179;52.106;21.024;2022-08-14T00:54:42;100235.66;;;20.48;69.78
22031;BME280;11179;52.106;21.024;2022-08-14T00:57:08;100219.06;;;20.52;69.85
22031;BME280;11179;52.106;21.024;2022-08-14T00:59:34;100213.97;;;20.54;69.89
22031;BME280;11179;52.106;21.024;2022-08-14T01:02:00;100215.81;;;20.50;70.41
22031;BME280;11179;52.106;21.024;2022-08-14T01:04:27;100212.53;;;20.48;70.66
22031;BME280;11179;52.106;21.024;2022-08-14T01:06:53;100201.69;;;20.46;70.55
22031;BME280;11179;52.106;21.024;2022-08-14T01:09:19;100193.50;;;20.50;70.76
22031;BME280;11179;52.106;21.024;2022-08-14T01:11:48;100193.97;;;20.43;70.99
22031;BME280;11179;52.106;21.024;2022-08-14T01:14:15;100190.69;;;20.41;70.95
22031;BME280;11179;52.106;21.024;2022-08-14T01:16:41;100188.22;;;20.39;70.91
22031;BME280;11179;52.106;21.024;2022-08-14T01:19:07;100180.88;;;20.35;70.70
22031;BME280;11179;52.106;21.024;2022-08-14T01:21:51;100187.25;;;20.35;70.60
22031;BME280;11179;52.106;21.024;2022-08-14T01:24:16;100180.03;;;20.34;70.61
22031;BME280;11179;52.106;21.024;2022-08-14T01:26:42;100174.47;;;20.34;70.51
22031;BME280;11179;52.106;21.024;2022-08-14T01:29:08;100187.41;;;20.39;70.66
22031;BME280;11179;52.106;21.024;2022-08-14T01:31:35;100189.38;;;20.38;70.66
22031;BME280;11179;52.106;21.024;2022-08-14T01:34:06;100191.19;;;20.34;70.59
22031;BME280;11179;52.106;21.024;2022-08-14T01:36:31;100197.91;;;20.33;70.50
22031;BME280;11179;52.106;21.024;2022-08-14T01:39:15;100194.13;;;20.29;70.56
22031;BME280;11179;52.106;21.024;2022-08-14T01:41:43;100194.63;;;20.31;70.93
22031;BME280;11179;52.106;21.024;2022-08-14T01:44:11;100194.47;;;20.36;70.63
22031;BME280;11179;52.106;21.024;2022-08-14T01:46:40;100203.16;;;20.35;71.08
22031;BME280;11179;52.106;21.024;2022-08-14T01:49:09;100206.94;;;20.30;71.22
22031;BME280;11179;52.106;21.024;2022-08-14T01:51:36;100210.22;;;20.32;71.33
22031;BME280;11179;52.106;21.024;2022-08-14T01:54:12;100212.97;;;20.24;71.57
22031;BME280;11179;52.106;21.024;2022-08-14T01:56:39;100210.38;;;20.19;71.54
22031;BME280;11179;52.106;21.024;2022-08-14T01:59:06;100212.84;;;20.20;71.22
22031;BME280;11179;52.106;21.024;2022-08-14T02:01:32;100206.44;;;20.20;71.78
22031;BME280;11179;52.106;21.024;2022-08-14T02:03:57;100214.78;;;20.20;71.33
22031;BME280;11179;52.106;21.024;2022-08-14T02:06:23;100204.97;;;20.22;71.74
22031;BME280;11179;52.106;21.024;2022-08-14T02:08:51;100206.63;;;20.23;71.64
22031;BME280;11179;52.106;21.024;2022-08-14T02:11:17;100207.41;;;20.24;71.83
22031;BME280;11179;52.106;21.024;2022-08-14T02:13:57;100202.81;;;20.28;71.96
22031;BME280;11179;52.106;21.024;2022-08-14T02:16:26;100200.34;;;20.26;71.69
22031;BME280;11179;52.106;21.024;2022-08-14T02:18:56;100194.47;;;20.28;71.72
22031;BME280;11179;52.106;21.024;2022-08-14T02:21:22;100197.25;;;20.28;71.91
22031;BME280;11179;52.106;21.024;2022-08-14T02:23:49;100186.59;;;20.21;71.80
22031;BME280;11179;52.106;21.024;2022-08-14T02:26:20;100186.59;;;20.21;71.87
22031;BME280;11179;52.106;21.024;2022-08-14T02:28:47;100188.25;;;20.22;72.26
22031;BME280;11179;52.106;21.024;2022-08-14T02:31:14;100178.72;;;20.23;71.79
22031;BME280;11179;52.106;21.024;2022-08-14T02:33:40;100179.19;;;20.25;71.64
22031;BME280;11179;52.106;21.024;2022-08-14T02:36:06;100176.41;;;20.25;71.61
22031;BME280;11179;52.106;21.024;2022-08-14T02:38:32;100169.19;;;20.24;71.69
22031;BME280;11179;52.106;21.024;2022-08-14T02:40:58;100173.94;;;20.24;71.76
22031;BME280;11179;52.106;21.024;2022-08-14T02:43:24;100171.50;;;20.22;72.30
22031;BME280;11179;52.106;21.024;2022-08-14T02:45:52;100168.72;;;20.22;72.03
22031;BME280;11179;52.106;21.024;2022-08-14T02:48:17;100171.34;;;20.19;72.30
22031;BME280;11179;52.106;21.024;2022-08-14T02:50:42;100172.81;;;20.16;72.53
22031;BME280;11179;52.106;21.024;2022-08-14T02:53:08;100166.75;;;20.14;72.14
22031;BME280;11179;52.106;21.024;2022-08-14T02:55:35;100159.84;;;20.12;72.17
22031;BME280;11179;52.106;21.024;2022-08-14T02:58:05;100162.81;;;20.15;72.36
22031;BME280;11179;52.106;21.024;2022-08-14T03:00:34;100166.41;;;20.16;72.14
22031;BME280;11179;52.106;21.024;2022-08-14T03:03:01;100161.00;;;20.11;71.91
22031;BME280;11179;52.106;21.024;2022-08-14T03:05:27;100155.78;;;20.09;72.38
22031;BME280;11179;52.106;21.024;2022-08-14T03:08:09;100160.19;;;20.10;72.13
22031;BME280;11179;52.106;21.024;2022-08-14T03:10:35;100151.84;;;20.10;72.06
22031;BME280;11179;52.106;21.024;2022-08-14T03:13:01;100148.22;;;20.10;71.97
22031;BME280;11179;52.106;21.024;2022-08-14T03:15:30;100145.25;;;20.06;72.23
22031;BME280;11179;52.106;21.024;2022-08-14T03:17:56;100149.63;;;19.98;72.09
22031;BME280;11179;52.106;21.024;2022-08-14T03:20:21;100145.88;;;19.94;72.44
22031;BME280;11179;52.106;21.024;2022-08-14T03:22:47;100133.28;;;19.97;72.45
22031;BME280;11179;52.106;21.024;2022-08-14T03:25:12;100135.41;;;20.00;72.18
22031;BME280;11179;52.106;21.024;2022-08-14T03:27:38;100143.78;;;20.00;72.00
22031;BME280;11179;52.106;21.024;2022-08-14T03:30:04;100144.25;;;19.93;72.16
22031;BME280;11179;52.106;21.024;2022-08-14T03:32:31;100148.63;;;19.86;72.03
22031;BME280;11179;52.106;21.024;2022-08-14T03:34:58;100146.03;;;19.81;72.29
22031;BME280;11179;52.106;21.024;2022-08-14T03:37:24;100149.31;;;19.83;71.84
22031;BME280;11179;52.106;21.024;2022-08-14T03:39:52;100141.28;;;19.81;71.87
22031;BME280;11179;52.106;21.024;2022-08-14T03:42:17;100139.78;;;19.75;72.08
22031;BME280;11179;52.106;21.024;2022-08-14T03:44:42;100136.81;;;19.72;72.14
22031;BME280;11179;52.106;21.024;2022-08-14T03:47:09;100146.00;;;19.72;71.97
22031;BME280;11179;52.106;21.024;2022-08-14T03:49:36;100137.00;;;19.75;72.30
22031;BME280;11179;52.106;21.024;2022-08-14T03:52:02;100147.31;;;19.75;72.30
22031;BME280;11179;52.106;21.024;2022-08-14T03:54:29;100137.00;;;19.75;72.18
22031;BME280;11179;52.106;21.024;2022-08-14T03:56:54;100147.66;;;19.82;72.17
22031;BME280;11179;52.106;21.024;2022-08-14T03:59:24;100141.09;;;19.86;72.28
22031;BME280;11179;52.106;21.024;2022-08-14T04:01:50;100138.81;;;19.88;72.10
22031;BME280;11179;52.106;21.024;2022-08-14T04:04:17;100139.97;;;19.87;72.11
22031;BME280;11179;52.106;21.024;2022-08-14T04:06:42;100142.44;;;19.89;71.97
22031;BME280;11179;52.106;21.024;2022-08-14T04:09:07;100145.53;;;19.87;71.90
22031;BME280;11179;52.106;21.024;2022-08-14T04:11:36;100145.38;;;19.84;72.09
22031;BME280;11179;52.106;21.024;2022-08-14T04:14:03;100150.47;;;19.82;71.69
22031;BME280;11179;52.106;21.024;2022-08-14T04:16:30;100146.69;;;19.78;72.20
22031;BME280;11179;52.106;21.024;2022-08-14T04:18:57;100151.25;;;19.74;72.21
22031;BME280;11179;52.106;21.024;2022-08-14T04:21:24;100151.75;;;19.76;72.30
22031;BME280;11179;52.106;21.024;2022-08-14T04:23:53;100159.78;;;19.77;72.11
22031;BME280;11179;52.106;21.024;2022-08-14T04:26:19;100157.50;;;19.79;71.97
22031;BME280;11179;52.106;21.024;2022-08-14T04:28:48;100164.53;;;19.77;72.15
22031;BME280;11179;52.106;21.024;2022-08-14T04:31:14;100160.59;;;19.69;72.79
22031;BME280;11179;52.106;21.024;2022-08-14T04:33:40;100159.09;;;19.63;72.80
22031;BME280;11179;52.106;21.024;2022-08-14T04:36:05;100163.34;;;19.60;72.81
22031;BME280;11179;52.106;21.024;2022-08-14T04:38:31;100156.31;;;19.63;73.05
22031;BME280;11179;52.106;21.024;2022-08-14T04:41:15;100159.28;;;19.66;72.92
22031;BME280;11179;52.106;21.024;2022-08-14T04:43:58;100163.53;;;19.73;72.72
22031;BME280;11179;52.106;21.024;2022-08-14T04:46:24;100167.47;;;19.72;73.28
22031;BME280;11179;52.106;21.024;2022-08-14T04:48:52;100167.31;;;19.77;73.09
22031;BME280;11179;52.106;21.024;2022-08-14T04:51:20;100160.94;;;19.85;73.08
22031;BME280;11179;52.106;21.024;2022-08-14T04:53:53;100162.25;;;19.79;73.35
22031;BME280;11179;52.106;21.024;2022-08-14T04:56:21;100164.34;;;19.73;73.75
22031;BME280;11179;52.106;21.024;2022-08-14T04:58:54;100167.00;;;19.87;73.61
22031;BME280;11179;52.106;21.024;2022-08-14T05:01:24;100169.00;;;19.95;73.37
22031;BME280;11179;52.106;21.024;2022-08-14T05:03:50;100170.34;;;20.06;73.16
22031;BME280;11179;52.106;21.024;2022-08-14T05:06:16;100164.44;;;20.08;73.02
22031;BME280;11179;52.106;21.024;2022-08-14T05:08:41;100160.84;;;20.07;73.09
22031;BME280;11179;52.106;21.024;2022-08-14T05:11:07;100168.06;;;20.08;73.34
22031;BME280;11179;52.106;21.024;2022-08-14T05:13:34;100168.53;;;20.27;73.11
22031;BME280;11179;52.106;21.024;2022-08-14T05:16:01;100160.66;;;20.38;72.84
22031;BME280;11179;52.106;21.024;2022-08-14T05:18:29;100159.34;;;20.53;72.76
22031;BME280;11179;52.106;21.024;2022-08-14T05:20:58;100159.97;;;20.67;72.48
22031;BME280;11179;52.106;21.024;2022-08-14T05:23:26;100160.28;;;20.91;72.02
22031;BME280;11179;52.106;21.024;2022-08-14T05:25:54;100151.91;;;21.00;71.82
22031;BME280;11179;52.106;21.024;2022-08-14T05:28:24;100157.16;;;21.01;71.14
22031;BME280;11179;52.106;21.024;2022-08-14T05:30:54;100160.78;;;20.93;71.58
22031;BME280;11179;52.106;21.024;2022-08-14T05:33:20;100160.97;;;20.88;71.19
22031;BME280;11179;52.106;21.024;2022-08-14T05:35:48;100168.03;;;20.86;71.32
22031;BME280;11179;52.106;21.024;2022-08-14T05:38:18;100162.44;;;20.86;71.37
22031;BME280;11179;52.106;21.024;2022-08-14T05:40:45;100168.03;;;20.86;71.55
22031;BME280;11179;52.106;21.024;2022-08-14T05:43:12;100169.47;;;20.92;71.38
22031;BME280;11179;52.106;21.024;2022-08-14T05:45:38;100171.28;;;20.96;71.49
22031;BME280;11179;52.106;21.024;2022-08-14T05:48:05;100155.97;;;21.11;71.68
22031;BME280;11179;52.106;21.024;2022-08-14T05:50:32;100163.63;;;21.23;71.29
22031;BME280;11179;52.106;21.024;2022-08-14T05:52:59;100159.47;;;21.37;71.58
22031;BME280;11179;52.106;21.024;2022-08-14T05:55:24;100162.50;;;21.62;70.44
22031;BME280;11179;52.106;21.024;2022-08-14T05:57:57;100150.09;;;21.71;70.30
22031;BME280;11179;52.106;21.024;2022-08-14T06:00:27;100154.41;;;21.69;69.92
22031;BME280;11179;52.106;21.024;2022-08-14T06:02:53;100150.81;;;21.60;70.23
22031;BME280;11179;52.106;21.024;2022-08-14T06:05:20;100151.47;;;21.65;70.12
22031;BME280;11179;52.106;21.024;2022-08-14T06:07:46;100157.59;;;22.09;70.32
22031;BME280;11179;52.106;21.024;2022-08-14T06:10:11;100155.34;;;22.44;68.97
22031;BME280;11179;52.106;21.024;2022-08-14T06:12:37;100155.81;;;22.79;67.97
22031;BME280;11179;52.106;21.024;2022-08-14T06:15:04;100145.31;;;23.09;67.23
22031;BME280;11179;52.106;21.024;2022-08-14T06:17:30;100142.16;;;23.23;65.94
22031;BME280;11179;52.106;21.024;2022-08-14T06:19:55;100135.19;;;23.53;65.89
22031;BME280;11179;52.106;21.024;2022-08-14T06:22:21;100148.50;;;23.80;64.79
22031;BME280;11179;52.106;21.024;2022-08-14T06:24:46;100143.50;;;24.14;63.90
22031;BME280;11179;52.106;21.024;2022-08-14T06:27:11;100140.91;;;24.33;63.35
22031;BME280;11179;52.106;21.024;2022-08-14T06:29:37;100145.09;;;24.39;62.58
22031;BME280;11179;52.106;21.024;2022-08-14T06:32:03;100146.13;;;24.07;62.40
22031;BME280;11179;52.106;21.024;2022-08-14T06:34:29;100146.50;;;23.93;63.17
22031;BME280;11179;52.106;21.024;2022-08-14T06:36:55;100147.91;;;24.27;62.19
22031;BME280;11179;52.106;21.024;2022-08-14T06:39:22;100140.09;;;24.33;62.26
22031;BME280;11179;52.106;21.024;2022-08-14T06:41:47;100138.47;;;24.59;61.21
22031;BME280;11179;52.106;21.024;2022-08-14T06:44:12;100149.16;;;24.98;60.28
22031;BME280;11179;52.106;21.024;2022-08-14T06:46:38;100147.34;;;25.05;59.58
22031;BME280;11179;52.106;21.024;2022-08-14T06:49:03;100144.63;;;24.65;59.91
22031;BME280;11179;52.106;21.024;2022-08-14T06:51:29;100151.38;;;24.92;59.90
22031;BME280;11179;52.106;21.024;2022-08-14T06:53:54;100147.91;;;25.11;59.57
22031;BME280;11179;52.106;21.024;2022-08-14T06:56:21;100153.69;;;25.18;59.51
22031;BME280;11179;52.106;21.024;2022-08-14T06:58:47;100151.75;;;24.90;58.60
22031;BME280;11179;52.106;21.024;2022-08-14T07:01:15;100148.66;;;24.52;59.60
22031;BME280;11179;52.106;21.024;2022-08-14T07:03:59;100149.63;;;24.72;60.20
22031;BME280;11179;52.106;21.024;2022-08-14T07:06:43;100149.81;;;25.22;59.55
22031;BME280;11179;52.106;21.024;2022-08-14T07:09:09;100147.41;;;25.87;58.00
22031;BME280;11179;52.106;21.024;2022-08-14T07:11:35;100149.22;;;26.15;56.19
22031;BME280;11179;52.106;21.024;2022-08-14T07:14:01;100151.50;;;26.44;55.57
22031;BME280;11179;52.106;21.024;2022-08-14T07:16:26;100150.94;;;26.77;54.59
22031;BME280;11179;52.106;21.024;2022-08-14T07:18:52;100150.13;;;26.77;53.86
22031;BME280;11179;52.106;21.024;2022-08-14T07:21:17;100153.25;;;26.71;53.53
22031;BME280;11179;52.106;21.024;2022-08-14T07:23:42;100153.19;;;26.68;53.89
22031;BME280;11179;52.106;21.024;2022-08-14T07:26:08;100152.50;;;26.94;53.70
22031;BME280;11179;52.106;21.024;2022-08-14T07:28:36;100150.44;;;26.71;53.57
22031;BME280;11179;52.106;21.024;2022-08-14T07:31:08;100148.38;;;26.88;53.99
22031;BME280;11179;52.106;21.024;2022-08-14T07:33:38;100146.13;;;26.78;52.81
22031;BME280;11179;52.106;21.024;2022-08-14T07:36:06;100145.97;;;26.48;52.73
22031;BME280;11179;52.106;21.024;2022-08-14T07:38:33;100137.94;;;26.30;53.71
22031;BME280;11179;52.106;21.024;2022-08-14T07:41:00;100155.16;;;26.10;54.05
22031;BME280;11179;52.106;21.024;2022-08-14T07:43:25;100141.44;;;25.73;54.84
22031;BME280;11179;52.106;21.024;2022-08-14T07:45:52;100143.81;;;25.71;55.63
22031;BME280;11179;52.106;21.024;2022-08-14T07:48:18;100138.56;;;26.05;55.05
22031;BME280;11179;52.106;21.024;2022-08-14T07:50:44;100148.69;;;26.44;54.70
22031;BME280;11179;52.106;21.024;2022-08-14T07:53:12;100135.41;;;26.25;54.15
22031;BME280;11179;52.106;21.024;2022-08-14T07:55:40;100147.00;;;26.05;55.01
22031;BME280;11179;52.106;21.024;2022-08-14T07:58:06;100143.19;;;25.97;55.10
22031;BME280;11179;52.106;21.024;2022-08-14T08:00:31;100147.97;;;25.77;55.35
22031;BME280;11179;52.106;21.024;2022-08-14T08:02:57;100143.13;;;25.43;56.46
22031;BME280;11179;52.106;21.024;2022-08-14T08:05:25;100157.69;;;25.48;56.55
22031;BME280;11179;52.106;21.024;2022-08-14T08:07:52;100146.72;;;25.43;56.68
22031;BME280;11179;52.106;21.024;2022-08-14T08:10:21;100153.09;;;25.40;56.80
22031;BME280;11179;52.106;21.024;2022-08-14T08:15:31;100153.59;;;25.46;56.75
22031;BME280;11179;52.106;21.024;2022-08-14T08:17:59;100156.44;;;25.14;57.19
22031;BME280;11179;52.106;21.024;2022-08-14T08:20:27;100156.81;;;24.85;58.00
22031;BME280;11179;52.106;21.024;2022-08-14T08:22:55;100145.75;;;24.76;58.11
22031;BME280;11179;52.106;21.024;2022-08-14T08:25:23;100155.91;;;24.53;58.89
22031;BME280;11179;52.106;21.024;2022-08-14T08:28:05;100152.34;;;24.40;59.13
22031;BME280;11179;52.106;21.024;2022-08-14T08:30:39;100155.66;;;24.30;59.26
22031;BME280;11179;52.106;21.024;2022-08-14T08:33:06;100154.25;;;24.12;59.51
22031;BME280;11179;52.106;21.024;2022-08-14T08:35:34;100150.41;;;24.29;59.47
22031;BME280;11179;52.106;21.024;2022-08-14T08:38:07;100156.00;;;24.29;59.73
22031;BME280;11179;52.106;21.024;2022-08-14T08:43:06;100150.50;;;24.32;59.87
22031;BME280;11179;52.106;21.024;2022-08-14T08:45:34;100149.59;;;24.16;60.62
22031;BME280;11179;52.106;21.024;2022-08-14T08:48:00;100149.91;;;24.26;59.85
22031;BME280;11179;52.106;21.024;2022-08-14T08:50:32;100153.03;;;24.37;59.43
22031;BME280;11179;52.106;21.024;2022-08-14T08:53:03;100159.03;;;24.36;59.41
22031;BME280;11179;52.106;21.024;2022-08-14T08:58:05;100157.44;;;23.98;60.52
22031;BME280;11179;52.106;21.024;2022-08-14T09:00:33;100146.47;;;24.05;60.76
22031;BME280;11179;52.106;21.024;2022-08-14T09:03:04;100150.56;;;24.08;60.77
22031;BME280;11179;52.106;21.024;2022-08-14T09:05:32;100158.31;;;24.26;60.52
22031;BME280;11179;52.106;21.024;2022-08-14T09:08:30;100153.88;;;24.38;59.96
22031;BME280;11179;52.106;21.024;2022-08-14T09:10:55;100154.97;;;24.61;59.41
22031;BME280;11179;52.106;21.024;2022-08-14T09:13:21;100152.63;;;24.63;59.34
22031;BME280;11179;52.106;21.024;2022-08-14T09:15:52;100155.34;;;24.75;59.05
22031;BME280;11179;52.106;21.024;2022-08-14T09:18:20;100156.94;;;24.60;58.70
22031;BME280;11179;52.106;21.024;2022-08-14T09:20:52;100148.06;;;24.58;58.67
22031;BME280;11179;52.106;21.024;2022-08-14T09:23:18;100148.81;;;24.71;58.73
22031;BME280;11179;52.106;21.024;2022-08-14T09:25:45;100147.47;;;24.81;58.00
22031;BME280;11179;52.106;21.024;2022-08-14T09:28:13;100152.84;;;24.86;58.28
22031;BME280;11179;52.106;21.024;2022-08-14T09:30:45;100139.81;;;24.93;57.59
22031;BME280;11179;52.106;21.024;2022-08-14T09:33:25;100144.94;;;24.91;58.13
22031;BME280;11179;52.106;21.024;2022-08-14T09:38:53;100141.59;;;24.86;58.15
22031;BME280;11179;52.106;21.024;2022-08-14T09:44:28;100137.13;;;24.97;57.65
22031;BME280;11179;52.106;21.024;2022-08-14T09:46:58;100133.72;;;24.91;57.71
22031;BME280;11179;52.106;21.024;2022-08-14T09:49:37;100124.84;;;24.89;58.34
22031;BME280;11179;52.106;21.024;2022-08-14T09:52:10;100128.72;;;25.28;57.57
22031;BME280;11179;52.106;21.024;2022-08-14T09:54:46;100121.41;;;25.43;57.20
22031;BME280;11179;52.106;21.024;2022-08-14T09:57:29;100123.25;;;25.36;56.84
22031;BME280;11179;52.106;21.024;2022-08-14T09:59:55;100117.38;;;25.41;56.99
22031;BME280;11179;52.106;21.024;2022-08-14T10:02:32;100115.44;;;25.45;57.18
22031;BME280;11179;52.106;21.024;2022-08-14T10:05:03;100108.44;;;25.70;56.87
22031;BME280;11179;52.106;21.024;2022-08-14T10:07:48;100105.88;;;25.81;56.50
22031;BME280;11179;52.106;21.024;2022-08-14T10:10:29;100110.56;;;26.12;54.86
22031;BME280;11179;52.106;21.024;2022-08-14T10:12:55;100103.13;;;26.19;54.84
22031;BME280;11179;52.106;21.024;2022-08-14T10:15:23;100106.13;;;26.68;54.79
22031;BME280;11179;52.106;21.024;2022-08-14T10:17:50;100100.19;;;27.16;53.83
22031;BME280;11179;52.106;21.024;2022-08-14T10:20:55;100094.22;;;27.21;53.24
22031;BME280;11179;52.106;21.024;2022-08-14T10:23:23;100089.66;;;27.13;52.97
22031;BME280;11179;52.106;21.024;2022-08-14T10:25:52;100094.22;;;27.21;52.95
22031;BME280;11179;52.106;21.024;2022-08-14T10:28:21;100090.44;;;27.36;52.91
22031;BME280;11179;52.106;21.024;2022-08-14T10:30:48;100089.56;;;27.32;52.73
22031;BME280;11179;52.106;21.024;2022-08-14T10:33:31;100096.56;;;27.15;52.84
22031;BME280;11179;52.106;21.024;2022-08-14T10:35:58;100095.78;;;26.95;52.39
22031;BME280;11179;52.106;21.024;2022-08-14T10:38:32;100096.88;;;26.87;52.60
22031;BME280;11179;52.106;21.024;2022-08-14T10:41:12;100095.28;;;27.13;52.50
22031;BME280;11179;52.106;21.024;2022-08-14T10:43:40;100083.38;;;27.23;52.41
22031;BME280;11179;52.106;21.024;2022-08-14T10:46:17;100097.75;;;27.14;52.36
22031;BME280;11179;52.106;21.024;2022-08-14T10:48:59;100096.31;;;27.01;52.29
22031;BME280;11179;52.106;21.024;2022-08-14T10:51:28;100095.59;;;26.85;52.50
22031;BME280;11179;52.106;21.024;2022-08-14T10:53:54;100095.13;;;26.60;52.77
22031;BME280;11179;52.106;21.024;2022-08-14T10:56:29;100074.84;;;26.73;52.85
22031;BME280;11179;52.106;21.024;2022-08-14T10:59:14;100078.66;;;26.62;53.29
22031;BME280;11179;52.106;21.024;2022-08-14T11:01:39;100078.41;;;26.28;53.94
22031;BME280;11179;52.106;21.024;2022-08-14T11:04:05;100079.25;;;25.94;54.64
22031;BME280;11179;52.106;21.024;2022-08-14T11:06:31;100076.78;;;25.73;55.59
22031;BME280;11179;52.106;21.024;2022-08-14T11:08:57;100071.78;;;25.82;55.11
22031;BME280;11179;52.106;21.024;2022-08-14T11:11:24;100076.94;;;25.99;54.77
22031;BME280;11179;52.106;21.024;2022-08-14T11:13:54;100075.47;;;25.86;54.28
22031;BME280;11179;52.106;21.024;2022-08-14T11:16:22;100076.94;;;25.99;54.40
22031;BME280;11179;52.106;21.024;2022-08-14T11:18:49;100065.41;;;26.05;54.30
22031;BME280;11179;52.106;21.024;2022-08-14T11:21:17;100065.28;;;26.36;53.69
22031;BME280;11179;52.106;21.024;2022-08-14T11:23:45;100061.25;;;26.56;53.37
22031;BME280;11179;52.106;21.024;2022-08-14T11:26:12;100073.97;;;26.89;53.08
22031;BME280;11179;52.106;21.024;2022-08-14T11:28:42;100062.34;;;26.94;52.47
22031;BME280;11179;52.106;21.024;2022-08-14T11:31:10;100060.28;;;26.91;52.73
22031;BME280;11179;52.106;21.024;2022-08-14T11:33:38;100055.47;;;27.14;53.24
22031;BME280;11179;52.106;21.024;2022-08-14T11:36:06;100054.38;;;27.22;52.00
22031;BME280;11179;52.106;21.024;2022-08-14T11:38:42;100057.13;;;27.19;51.98
22031;BME280;11179;52.106;21.024;2022-08-14T11:41:10;100060.38;;;27.21;51.89
22031;BME280;11179;52.106;21.024;2022-08-14T11:43:44;100053.50;;;27.18;51.83
22031;BME280;11179;52.106;21.024;2022-08-14T11:46:10;100064.53;;;27.04;51.23
22031;BME280;11179;52.106;21.024;2022-08-14T11:48:48;100056.69;;;27.17;51.65
22031;BME280;11179;52.106;21.024;2022-08-14T11:51:19;100064.56;;;27.30;51.55
22031;BME280;11179;52.106;21.024;2022-08-14T11:54:00;100063.75;;;27.53;51.77
22031;BME280;11179;52.106;21.024;2022-08-14T11:56:33;100054.69;;;27.66;51.47
22031;BME280;11179;52.106;21.024;2022-08-14T11:58:59;100048.50;;;27.87;51.63
22031;BME280;11179;52.106;21.024;2022-08-14T12:01:27;100039.66;;;27.89;50.80
22031;BME280;11179;52.106;21.024;2022-08-14T12:03:54;100049.81;;;27.93;50.80
22031;BME280;11179;52.106;21.024;2022-08-14T12:06:24;100045.22;;;27.82;51.05
22031;BME280;11179;52.106;21.024;2022-08-14T12:08:50;100041.09;;;27.75;51.72
22031;BME280;11179;52.106;21.024;2022-08-14T12:11:19;100033.63;;;27.34;51.80
22031;BME280;11179;52.106;21.024;2022-08-14T12:13:45;100039.06;;;26.97;51.97
22031;BME280;11179;52.106;21.024;2022-08-14T12:16:15;100041.66;;;26.83;52.56
22031;BME280;11179;52.106;21.024;2022-08-14T12:18:43;100034.25;;;26.75;52.72
22031;BME280;11179;52.106;21.024;2022-08-14T12:21:14;100043.81;;;26.70;53.13
22031;BME280;11179;52.106;21.024;2022-08-14T12:23:40;100038.53;;;26.68;53.15
22031;BME280;11179;52.106;21.024;2022-08-14T12:26:08;100042.44;;;26.60;52.23
22031;BME280;11179;52.106;21.024;2022-08-14T12:28:35;100036.97;;;26.48;52.53
22031;BME280;11179;52.106;21.024;2022-08-14T12:31:15;100043.25;;;26.61;52.66
22031;BME280;11179;52.106;21.024;2022-08-14T12:33:55;100039.28;;;26.65;52.75
22031;BME280;11179;52.106;21.024;2022-08-14T12:36:20;100032.47;;;26.66;52.70
22031;BME280;11179;52.106;21.024;2022-08-14T12:38:47;100037.47;;;26.77;52.57
22031;BME280;11179;52.106;21.024;2022-08-14T12:41:18;100031.66;;;26.66;52.32
22031;BME280;11179;52.106;21.024;2022-08-14T12:43:58;100032.44;;;26.63;52.43
22031;BME280;11179;52.106;21.024;2022-08-14T12:49:00;100021.66;;;26.68;51.98
22031;BME280;11179;52.106;21.024;2022-08-14T12:51:28;100029.34;;;26.71;52.69
22031;BME280;11179;52.106;21.024;2022-08-14T12:53:55;100026.19;;;26.77;52.32
22031;BME280;11179;52.106;21.024;2022-08-14T12:56:22;100025.00;;;26.78;52.71
22031;BME280;11179;52.106;21.024;2022-08-14T12:58:55;100015.16;;;26.87;52.73
22031;BME280;11179;52.106;21.024;2022-08-14T13:03:46;100020.47;;;26.69;52.58
22031;BME280;11179;52.106;21.024;2022-08-14T13:06:13;100008.19;;;26.58;53.04